Time;durP1;ratioP1;P1;durP2;ratioP2;P2;SDS_P1;SDS_P2;PMS_P1;PMS_P2;Temp;Humidity;BMP_temperature;BMP_pressure;BME280_temperature;BME280_humidity;BME280_pressure;Samples;Min_cycle;Max_cycle;Signal;HPM_P1;HPM_P2
2022/07/19 00:01:17;;;;;;;0.80;0.80;;;24.30;97.50;;;;;;5069922;28;20202;-61
2022/07/19 00:03:44;;;;;;;2.72;0.80;;;24.30;97.60;;;;;;5073760;28;20306;-61
2022/07/19 00:06:11;;;;;;;0.80;0.80;;;24.20;97.60;;;;;;5073905;28;20290;-62
2022/07/19 00:08:38;;;;;;;0.90;0.90;;;24.10;97.80;;;;;;5074615;28;20286;-61
2022/07/19 00:11:05;;;;;;;1.20;0.88;;;24.00;97.70;;;;;;5076153;28;20227;-61
2022/07/19 00:13:33;;;;;;;0.90;0.90;;;24.00;97.60;;;;;;5073535;28;20219;-61
2022/07/19 00:16:00;;;;;;;0.70;0.70;;;24.00;97.70;;;;;;5071706;28;20208;-61
2022/07/19 00:18:27;;;;;;;0.80;0.80;;;23.90;97.80;;;;;;5074484;28;20204;-61
2022/07/19 00:20:54;;;;;;;1.95;0.90;;;23.90;97.90;;;;;;5073743;28;20230;-62
2022/07/19 00:23:21;;;;;;;0.80;0.80;;;23.90;98.30;;;;;;5075076;28;20225;-62
2022/07/19 00:25:47;;;;;;;0.90;0.90;;;23.90;97.80;;;;;;5076471;28;20210;-62
2022/07/19 00:28:14;;;;;;;0.75;0.75;;;23.80;97.80;;;;;;5071888;28;20211;-62
2022/07/19 00:30:43;;;;;;;0.98;0.90;;;23.80;97.90;;;;;;5075836;28;20223;-63
2022/07/19 00:33:10;;;;;;;0.73;0.73;;;23.80;97.80;;;;;;5075071;28;20261;-63
2022/07/19 00:35:38;;;;;;;1.98;1.08;;;23.80;97.70;;;;;;5074659;28;20204;-61
2022/07/19 00:38:06;;;;;;;0.85;0.85;;;23.70;98.00;;;;;;5073077;28;20230;-61
2022/07/19 00:40:35;;;;;;;1.38;1.05;;;23.80;98.20;;;;;;5075116;28;20195;-61
2022/07/19 00:43:05;;;;;;;0.80;0.80;;;23.70;98.20;;;;;;5082680;28;20222;-62
2022/07/19 00:45:33;;;;;;;0.90;0.90;;;23.60;98.20;;;;;;5081574;28;20274;-62
2022/07/19 00:48:06;;;;;;;0.90;0.90;;;23.60;98.40;;;;;;5082071;28;20607;-61
2022/07/19 00:50:35;;;;;;;1.00;1.00;;;23.70;98.20;;;;;;5079649;28;20922;-62
2022/07/19 00:53:06;;;;;;;0.85;0.85;;;23.60;98.20;;;;;;5082944;28;20231;-61
2022/07/19 00:55:38;;;;;;;0.80;0.80;;;23.60;98.30;;;;;;5079173;28;20214;-61
2022/07/19 00:58:08;;;;;;;0.80;0.80;;;23.50;98.10;;;;;;5079838;28;20226;-61
2022/07/19 01:00:37;;;;;;;0.80;0.80;;;23.50;98.30;;;;;;5069314;28;20222;-62
2022/07/19 01:03:07;;;;;;;0.82;0.80;;;23.50;98.40;;;;;;5074180;28;20226;-63
2022/07/19 01:05:35;;;;;;;0.70;0.70;;;23.50;98.20;;;;;;5074422;28;20299;-63
2022/07/19 01:08:03;;;;;;;0.98;0.98;;;23.50;98.40;;;;;;5072154;28;20297;-62
2022/07/19 01:10:30;;;;;;;0.70;0.70;;;23.50;98.50;;;;;;5074001;28;20315;-62
2022/07/19 01:12:57;;;;;;;0.80;0.80;;;23.50;98.40;;;;;;5076650;28;20296;-62
2022/07/19 01:15:25;;;;;;;0.75;0.75;;;23.50;98.40;;;;;;5070710;28;20298;-61
2022/07/19 01:17:53;;;;;;;0.80;0.80;;;23.50;98.40;;;;;;5072859;28;20207;-62
2022/07/19 01:20:23;;;;;;;0.70;0.60;;;23.50;98.70;;;;;;5074739;28;20614;-62
2022/07/19 01:22:51;;;;;;;0.80;0.80;;;23.40;98.60;;;;;;5073149;28;20432;-61
2022/07/19 01:25:18;;;;;;;0.90;0.90;;;23.40;98.50;;;;;;5070195;28;20300;-62
2022/07/19 01:27:47;;;;;;;0.73;0.70;;;23.30;98.80;;;;;;5074809;28;20661;-61
2022/07/19 01:30:15;;;;;;;0.80;0.80;;;23.30;98.90;;;;;;5061327;28;20219;-61
2022/07/19 01:32:42;;;;;;;0.63;0.63;;;23.30;98.60;;;;;;5070308;28;20241;-62
2022/07/19 01:35:10;;;;;;;0.90;0.90;;;23.30;98.70;;;;;;5076206;28;20208;-63
2022/07/19 01:37:37;;;;;;;0.80;0.80;;;23.30;98.80;;;;;;5072488;28;20226;-62
2022/07/19 01:40:07;;;;;;;0.70;0.70;;;23.30;98.90;;;;;;5080349;28;20209;-62
2022/07/19 01:42:34;;;;;;;0.90;0.90;;;23.30;99.00;;;;;;5069783;28;20230;-62
2022/07/19 01:45:01;;;;;;;0.90;0.90;;;23.20;98.90;;;;;;5076826;28;20206;-62
2022/07/19 01:47:27;;;;;;;0.80;0.80;;;23.20;99.00;;;;;;5068112;28;20274;-61
2022/07/19 01:49:54;;;;;;;0.80;0.80;;;23.20;98.90;;;;;;5063412;28;20318;-62
2022/07/19 01:52:21;;;;;;;0.73;0.73;;;23.10;98.70;;;;;;5080971;28;20318;-61
2022/07/19 01:54:48;;;;;;;0.80;0.80;;;23.10;98.90;;;;;;5080014;28;20653;-63
2022/07/19 01:57:17;;;;;;;0.80;0.80;;;23.10;98.90;;;;;;5086356;28;20230;-62
2022/07/19 01:59:44;;;;;;;0.80;0.80;;;23.10;99.00;;;;;;5079106;28;20204;-61
2022/07/19 02:02:11;;;;;;;0.70;0.70;;;23.10;99.00;;;;;;5078092;28;20206;-62
2022/07/19 02:04:38;;;;;;;0.90;0.90;;;23.10;99.30;;;;;;5076441;28;20217;-63
2022/07/19 02:07:05;;;;;;;0.80;0.80;;;23.00;99.00;;;;;;5076978;28;20643;-62
2022/07/19 02:09:31;;;;;;;0.73;0.73;;;23.00;98.90;;;;;;5078254;28;20707;-61
2022/07/19 02:11:58;;;;;;;0.90;0.90;;;23.00;99.10;;;;;;5079758;28;20291;-62
2022/07/19 02:14:27;;;;;;;0.70;0.70;;;22.90;99.10;;;;;;5077695;28;20832;-62
2022/07/19 02:16:53;;;;;;;0.75;0.75;;;22.80;99.20;;;;;;5075806;28;20207;-62
2022/07/19 02:19:21;;;;;;;1.33;0.80;;;22.80;99.40;;;;;;5073646;28;20194;-61
2022/07/19 02:21:48;;;;;;;0.80;0.80;;;22.80;99.40;;;;;;5075312;28;20271;-61
2022/07/19 02:24:15;;;;;;;0.80;0.80;;;22.80;99.40;;;;;;5079437;28;20228;-62
2022/07/19 02:26:42;;;;;;;0.82;0.82;;;22.70;99.70;;;;;;5076687;28;20663;-62
2022/07/19 02:29:10;;;;;;;0.80;0.80;;;22.70;99.50;;;;;;5075355;28;20313;-62
2022/07/19 02:31:38;;;;;;;0.80;0.80;;;22.70;99.60;;;;;;5076970;28;20704;-61
2022/07/19 02:34:05;;;;;;;0.90;0.90;;;22.60;99.70;;;;;;5074224;28;20664;-62
2022/07/19 02:36:32;;;;;;;0.82;0.82;;;22.40;99.70;;;;;;5078231;28;20245;-62
2022/07/19 02:38:59;;;;;;;0.70;0.70;;;22.50;99.70;;;;;;5073656;28;20724;-62
2022/07/19 02:41:26;;;;;;;0.82;0.82;;;22.50;99.70;;;;;;5073235;28;20206;-62
2022/07/19 02:43:53;;;;;;;1.10;1.00;;;22.60;99.90;;;;;;5071015;28;20307;-62
2022/07/19 02:46:20;;;;;;;0.90;0.90;;;22.50;99.80;;;;;;5082486;28;20195;-62
2022/07/19 02:48:48;;;;;;;1.10;0.90;;;22.50;99.90;;;;;;5080379;28;20250;-62
2022/07/19 02:51:15;;;;;;;0.77;0.77;;;22.40;99.90;;;;;;5078278;28;20651;-62
2022/07/19 02:53:41;;;;;;;0.60;0.60;;;22.40;99.90;;;;;;5082999;28;20321;-62
2022/07/19 02:56:08;;;;;;;1.30;0.85;;;22.40;99.90;;;;;;5082954;28;20309;-61
2022/07/19 02:58:35;;;;;;;0.85;0.80;;;22.40;99.90;;;;;;5086568;28;20294;-62
2022/07/19 03:01:02;;;;;;;0.75;0.75;;;22.30;99.90;;;;;;5087179;28;20233;-62
2022/07/19 03:03:44;;;;;;;1.20;0.90;;;22.30;99.90;;;;;;5074035;28;20251;-62
2022/07/19 03:06:14;;;;;;;0.70;0.70;;;22.30;99.90;;;;;;5083342;28;20209;-61
2022/07/19 03:08:41;;;;;;;0.70;0.70;;;22.30;99.90;;;;;;5094438;28;20226;-62
2022/07/19 03:11:08;;;;;;;0.70;0.70;;;22.30;99.90;;;;;;5080469;28;20223;-62
2022/07/19 03:13:35;;;;;;;0.80;0.80;;;22.20;99.90;;;;;;5083830;28;20313;-61
2022/07/19 03:16:02;;;;;;;0.90;0.90;;;22.20;99.90;;;;;;5074317;28;20286;-62
2022/07/19 03:18:29;;;;;;;2.80;0.80;;;22.20;99.90;;;;;;5078163;28;20701;-62
2022/07/19 03:20:57;;;;;;;0.80;0.80;;;22.20;99.90;;;;;;5085162;28;20530;-62
2022/07/19 03:23:26;;;;;;;0.68;0.68;;;22.20;99.90;;;;;;5074509;28;20236;-61
2022/07/19 03:25:53;;;;;;;1.00;1.00;;;22.20;99.90;;;;;;5089634;28;20605;-61
2022/07/19 03:28:20;;;;;;;0.80;0.80;;;22.10;99.90;;;;;;5071960;28;20210;-62
2022/07/19 03:30:47;;;;;;;0.93;0.93;;;22.10;99.90;;;;;;5082175;28;20214;-62
2022/07/19 03:33:15;;;;;;;0.90;0.90;;;22.00;99.90;;;;;;5078256;28;20663;-61
2022/07/19 03:35:43;;;;;;;0.98;0.98;;;21.90;99.90;;;;;;5066924;28;20200;-63
2022/07/19 03:38:10;;;;;;;1.02;0.93;;;21.90;99.90;;;;;;5083308;28;20208;-62
2022/07/19 03:40:38;;;;;;;1.15;0.70;;;21.90;99.90;;;;;;5071421;28;20678;-62
2022/07/19 03:43:05;;;;;;;1.13;1.00;;;21.80;99.90;;;;;;5084154;28;20230;-61
2022/07/19 03:45:33;;;;;;;0.90;0.90;;;21.80;99.90;;;;;;5075484;28;20268;-60
2022/07/19 03:48:00;;;;;;;0.85;0.85;;;21.80;99.90;;;;;;5076343;28;20723;-62
2022/07/19 03:50:27;;;;;;;0.93;0.93;;;21.80;99.90;;;;;;5074858;28;20203;-62
2022/07/19 03:52:54;;;;;;;0.80;0.80;;;21.80;99.90;;;;;;5081669;28;20710;-61
2022/07/19 03:55:21;;;;;;;1.23;1.13;;;21.70;99.90;;;;;;5084368;28;20203;-62
2022/07/19 03:57:49;;;;;;;1.02;0.90;;;21.70;99.90;;;;;;5084776;28;20800;-62
2022/07/19 04:00:16;;;;;;;1.08;1.08;;;21.70;99.90;;;;;;5079269;28;20547;-62
2022/07/19 04:02:43;;;;;;;0.98;0.98;;;21.70;99.90;;;;;;5079994;28;20265;-61
2022/07/19 04:05:11;;;;;;;1.38;1.00;;;21.60;99.90;;;;;;5085697;28;20297;-63
2022/07/19 04:07:38;;;;;;;0.88;0.88;;;21.60;99.90;;;;;;5085117;28;20199;-63
2022/07/19 04:10:06;;;;;;;0.80;0.80;;;21.50;99.90;;;;;;5084142;28;20674;-61
2022/07/19 04:12:33;;;;;;;0.70;0.70;;;21.50;99.90;;;;;;5082062;28;20230;-62
2022/07/19 04:15:01;;;;;;;0.90;0.90;;;21.40;99.90;;;;;;5082652;28;20682;-61
2022/07/19 04:17:28;;;;;;;1.00;1.00;;;21.40;99.90;;;;;;5078044;28;20214;-63
2022/07/19 04:19:55;;;;;;;2.38;0.98;;;21.40;99.90;;;;;;5079824;28;20199;-62
2022/07/19 04:22:23;;;;;;;0.80;0.80;;;21.30;99.90;;;;;;5083804;28;20636;-62
2022/07/19 04:24:51;;;;;;;0.90;0.90;;;21.30;99.90;;;;;;5083338;28;20206;-62
2022/07/19 04:27:18;;;;;;;0.90;0.90;;;21.30;99.90;;;;;;5084391;28;20221;-62
2022/07/19 04:29:45;;;;;;;0.88;0.80;;;21.30;99.90;;;;;;5083671;28;20248;-63
2022/07/19 04:32:13;;;;;;;0.82;0.82;;;21.40;99.90;;;;;;5089500;28;20229;-62
2022/07/19 04:34:40;;;;;;;1.00;1.00;;;21.40;99.90;;;;;;5084118;28;20225;-62
2022/07/19 04:37:07;;;;;;;1.15;1.05;;;21.40;99.90;;;;;;5082151;28;20205;-61
2022/07/19 04:39:34;;;;;;;1.48;0.90;;;21.50;99.90;;;;;;5079626;28;20242;-62
2022/07/19 04:42:00;;;;;;;1.27;0.93;;;21.50;99.90;;;;;;5082277;28;20284;-61
2022/07/19 04:44:27;;;;;;;1.05;0.90;;;21.50;99.90;;;;;;5092455;28;20667;-63
2022/07/19 04:46:54;;;;;;;0.90;0.90;;;21.50;99.90;;;;;;5082305;28;20238;-63
2022/07/19 04:49:23;;;;;;;1.20;1.10;;;21.40;99.90;;;;;;5074097;28;20283;-63
2022/07/19 04:51:50;;;;;;;0.90;0.90;;;21.30;99.90;;;;;;5075087;28;20415;-63
2022/07/19 04:54:17;;;;;;;1.30;1.20;;;21.20;99.90;;;;;;5076735;28;20223;-62
2022/07/19 04:56:45;;;;;;;1.27;1.08;;;21.10;99.90;;;;;;5088022;28;20320;-63
2022/07/19 04:59:11;;;;;;;1.00;1.00;;;21.10;99.90;;;;;;5079833;28;20324;-63
2022/07/19 05:01:38;;;;;;;0.90;0.90;;;21.10;99.90;;;;;;5070324;28;20203;-63
2022/07/19 05:04:05;;;;;;;1.13;0.98;;;21.10;99.90;;;;;;5069147;28;20219;-63
2022/07/19 05:06:33;;;;;;;0.95;0.95;;;21.10;99.90;;;;;;5061509;28;20237;-64
2022/07/19 05:09:00;;;;;;;1.95;1.00;;;21.20;99.90;;;;;;5077812;28;20283;-64
2022/07/19 05:11:27;;;;;;;0.90;0.90;;;21.20;99.90;;;;;;5067451;28;20269;-62
2022/07/19 05:13:54;;;;;;;0.90;0.90;;;21.20;99.90;;;;;;5070418;28;20691;-64
2022/07/19 05:16:21;;;;;;;1.05;1.05;;;21.30;99.90;;;;;;5071143;28;20204;-63
2022/07/19 05:18:48;;;;;;;1.10;1.10;;;21.40;99.90;;;;;;5068519;28;20272;-62
2022/07/19 05:21:15;;;;;;;1.08;1.05;;;21.40;99.90;;;;;;5072588;28;20278;-64
2022/07/19 05:23:44;;;;;;;2.13;1.10;;;21.50;99.90;;;;;;5076398;28;20686;-65
2022/07/19 05:26:11;;;;;;;1.27;1.17;;;21.70;99.90;;;;;;5068143;28;20242;-64
2022/07/19 05:28:38;;;;;;;1.10;1.10;;;21.90;99.90;;;;;;5067664;28;20240;-63
2022/07/19 05:31:05;;;;;;;1.40;1.30;;;22.20;99.90;;;;;;5079802;28;20285;-64
2022/07/19 05:33:32;;;;;;;2.15;1.08;;;22.40;99.90;;;;;;5071141;28;20230;-64
2022/07/19 05:35:59;;;;;;;1.23;1.23;;;22.60;99.90;;;;;;5066981;28;20203;-68
2022/07/19 05:38:26;;;;;;;1.00;0.90;;;22.80;99.90;;;;;;5077283;28;20203;-66
2022/07/19 05:40:54;;;;;;;1.23;1.10;;;23.00;99.90;;;;;;5069396;28;20703;-65
2022/07/19 05:43:21;;;;;;;1.15;1.05;;;23.20;99.90;;;;;;5070990;28;20237;-66
2022/07/19 05:45:48;;;;;;;1.00;1.00;;;23.50;99.90;;;;;;5069086;28;21154;-66
2022/07/19 05:48:15;;;;;;;1.05;1.05;;;23.60;99.90;;;;;;5070832;28;20645;-67
2022/07/19 05:50:42;;;;;;;1.00;1.00;;;23.80;99.90;;;;;;5064048;28;20286;-67
2022/07/19 05:53:09;;;;;;;1.38;1.20;;;23.90;99.90;;;;;;5067964;28;20313;-68
2022/07/19 05:55:35;;;;;;;1.10;1.00;;;24.10;99.90;;;;;;5070364;28;20226;-67
2022/07/19 05:58:04;;;;;;;1.27;1.17;;;24.20;99.90;;;;;;5070445;28;20640;-66
2022/07/19 06:00:31;;;;;;;1.30;1.20;;;24.40;99.90;;;;;;5074882;28;20206;-67
2022/07/19 06:02:57;;;;;;;1.20;1.20;;;24.50;99.90;;;;;;5074749;28;20247;-66
2022/07/19 06:05:25;;;;;;;1.15;1.05;;;24.60;99.90;;;;;;5075868;28;20233;-66
2022/07/19 06:07:51;;;;;;;0.85;0.85;;;24.80;99.90;;;;;;5066528;28;20230;-68
2022/07/19 06:10:18;;;;;;;1.33;1.20;;;24.90;99.90;;;;;;5071202;28;20282;-66
2022/07/19 06:12:45;;;;;;;2.33;1.10;;;25.00;99.90;;;;;;5076895;28;20230;-66
2022/07/19 06:15:14;;;;;;;1.50;1.10;;;25.10;99.90;;;;;;5075872;28;20203;-65
2022/07/19 06:17:40;;;;;;;2.17;1.30;;;25.10;99.90;;;;;;5078636;28;20287;-67
2022/07/19 06:20:08;;;;;;;1.05;1.05;;;25.10;99.90;;;;;;5075301;28;20207;-66
2022/07/19 06:22:35;;;;;;;1.13;1.13;;;25.20;99.90;;;;;;5075499;28;20310;-65
2022/07/19 06:25:02;;;;;;;1.48;1.27;;;25.30;99.90;;;;;;5072412;28;20294;-66
2022/07/19 06:27:29;;;;;;;2.22;1.30;;;25.40;99.90;;;;;;5076049;28;20209;-67
2022/07/19 06:29:56;;;;;;;1.00;1.00;;;25.40;99.90;;;;;;5073139;28;20284;-67
2022/07/19 06:32:24;;;;;;;1.42;1.17;;;25.30;99.90;;;;;;5074201;28;20231;-66
2022/07/19 06:34:51;;;;;;;1.10;1.10;;;25.20;99.90;;;;;;5071064;28;20271;-68
2022/07/19 06:39:46;;;;;;;1.10;1.10;;;25.20;99.90;;;;;;5060918;28;20215;-61
2022/07/19 06:42:12;;;;;;;1.15;1.15;;;25.30;99.90;;;;;;5072816;28;20204;-60
2022/07/19 06:44:39;;;;;;;1.15;1.10;;;25.30;99.90;;;;;;5074130;28;20286;-59
2022/07/19 06:47:06;;;;;;;1.23;1.20;;;25.60;99.90;;;;;;5068424;28;20207;-60
2022/07/19 06:49:34;;;;;;;1.00;1.00;;;25.70;99.90;;;;;;5068818;28;20282;-60
2022/07/19 06:52:01;;;;;;;1.20;1.20;;;25.70;99.90;;;;;;5070893;28;20316;-60
2022/07/19 06:54:28;;;;;;;1.20;1.00;;;25.90;99.90;;;;;;5073540;28;20317;-60
2022/07/19 06:56:55;;;;;;;1.20;1.20;;;26.00;99.90;;;;;;5073380;28;20230;-59
2022/07/19 06:59:22;;;;;;;1.50;1.10;;;26.10;99.90;;;;;;5072571;28;20770;-59
2022/07/19 07:01:49;;;;;;;1.23;1.23;;;26.30;99.90;;;;;;5072933;28;20691;-60
2022/07/19 07:04:16;;;;;;;2.92;1.42;;;26.30;99.90;;;;;;5074121;28;20203;-60
2022/07/19 07:06:44;;;;;;;2.72;1.20;;;26.30;99.90;;;;;;5073763;28;20203;-60
2022/07/19 07:09:11;;;;;;;5.38;1.40;;;26.30;99.90;;;;;;5074367;28;20227;-61
2022/07/19 07:11:38;;;;;;;1.20;1.10;;;26.20;99.90;;;;;;5072045;28;20219;-61
2022/07/19 07:14:05;;;;;;;1.65;1.10;;;26.10;99.90;;;;;;5070587;28;20214;-61
2022/07/19 07:16:32;;;;;;;1.00;1.00;;;26.20;99.90;;;;;;5073942;28;20200;-61
2022/07/19 07:18:58;;;;;;;3.00;1.20;;;26.30;99.90;;;;;;5073917;28;20253;-60
2022/07/19 07:21:25;;;;;;;1.30;1.00;;;26.40;99.90;;;;;;5070805;28;20286;-60
2022/07/19 07:23:53;;;;;;;1.10;1.10;;;26.50;99.90;;;;;;5068653;28;20279;-61
2022/07/19 07:26:20;;;;;;;3.30;1.30;;;26.70;99.90;;;;;;5072791;28;20712;-60
2022/07/19 07:28:47;;;;;;;2.00;1.35;;;26.80;99.90;;;;;;5073801;28;20230;-60
2022/07/19 07:31:14;;;;;;;1.33;1.30;;;27.00;99.90;;;;;;5071830;28;20223;-60
2022/07/19 07:33:41;;;;;;;1.30;1.30;;;27.00;99.90;;;;;;5073542;28;20647;-59
2022/07/19 07:36:08;;;;;;;1.70;1.40;;;27.10;99.90;;;;;;5072918;28;20209;-60
2022/07/19 07:38:35;;;;;;;1.27;1.17;;;27.10;99.90;;;;;;5073220;28;20310;-59
2022/07/19 07:41:04;;;;;;;1.83;1.20;;;27.20;99.90;;;;;;5073367;28;20221;-59
2022/07/19 07:43:31;;;;;;;1.50;1.40;;;27.20;99.90;;;;;;5069968;28;20589;-61
2022/07/19 07:45:58;;;;;;;1.60;1.50;;;27.30;99.90;;;;;;5073559;28;20687;-61
2022/07/19 07:48:25;;;;;;;2.13;1.35;;;27.30;99.90;;;;;;5073687;28;20227;-60
2022/07/19 07:50:52;;;;;;;1.25;1.20;;;27.20;99.90;;;;;;5073341;28;20208;-61
2022/07/19 07:53:19;;;;;;;1.20;1.20;;;27.30;99.90;;;;;;5073469;28;20251;-58
2022/07/19 07:55:46;;;;;;;1.20;1.20;;;27.50;99.90;;;;;;5073476;28;20286;-61
2022/07/19 07:58:14;;;;;;;1.25;1.15;;;27.60;99.90;;;;;;5073085;28;20591;-60
2022/07/19 08:00:41;;;;;;;1.25;1.17;;;27.60;99.90;;;;;;5071707;28;20214;-60
2022/07/19 08:03:09;;;;;;;1.48;1.38;;;27.60;99.90;;;;;;5070267;28;20408;-60
2022/07/19 08:05:36;;;;;;;1.20;1.20;;;27.70;99.90;;;;;;5072711;28;20209;-60
2022/07/19 08:08:03;;;;;;;1.10;1.10;;;27.80;99.90;;;;;;5073139;28;20219;-58
2022/07/19 08:10:33;;;;;;;1.30;1.30;;;28.00;99.90;;;;;;5072385;28;20657;-61
2022/07/19 08:13:00;;;;;;;1.63;1.52;;;28.10;99.90;;;;;;5072547;28;20310;-61
2022/07/19 08:15:28;;;;;;;1.20;1.10;;;28.10;99.90;;;;;;5072614;28;20298;-61
2022/07/19 08:17:55;;;;;;;1.10;1.10;;;28.00;99.90;;;;;;5071957;28;20302;-61
2022/07/19 08:20:22;;;;;;;1.40;1.30;;;28.20;99.90;;;;;;5071607;28;20206;-60
2022/07/19 08:22:49;;;;;;;1.52;1.40;;;28.40;99.90;;;;;;5072398;28;20201;-60
2022/07/19 08:25:16;;;;;;;1.83;1.35;;;28.50;99.90;;;;;;5072429;28;20295;-62
2022/07/19 08:27:43;;;;;;;3.15;1.35;;;28.60;99.90;;;;;;5070030;28;20310;-61
2022/07/19 08:30:11;;;;;;;1.95;1.30;;;28.60;99.90;;;;;;5069876;28;20290;-60
2022/07/19 08:32:40;;;;;;;1.25;1.02;;;28.50;99.90;;;;;;5072136;28;20260;-60
2022/07/19 08:35:08;;;;;;;1.80;1.33;;;28.50;99.90;;;;;;5072434;28;20242;-60
2022/07/19 08:37:36;;;;;;;1.67;1.20;;;28.60;99.90;;;;;;5071312;28;20223;-60
2022/07/19 08:40:05;;;;;;;2.15;1.38;;;28.70;99.90;;;;;;5068768;28;20225;-59
2022/07/19 08:42:32;;;;;;;1.50;1.40;;;28.80;99.90;;;;;;5071720;28;20602;-59
2022/07/19 08:45:02;;;;;;;4.47;1.65;;;28.90;99.90;;;;;;5069209;28;20621;-61
2022/07/19 08:47:31;;;;;;;1.67;1.30;;;28.90;99.90;;;;;;5068859;28;20641;-61
2022/07/19 08:50:00;;;;;;;1.08;1.08;;;29.00;99.90;;;;;;5070980;28;20203;-61
2022/07/19 08:52:27;;;;;;;1.35;1.23;;;29.20;99.90;;;;;;5071630;28;20223;-61
2022/07/19 08:54:55;;;;;;;3.90;1.23;;;29.30;99.90;;;;;;5071855;28;20199;-61
2022/07/19 09:00:08;;;;;;;1.27;1.20;;;29.50;99.90;;;;;;5064254;28;20368;-59
2022/07/19 09:02:35;;;;;;;3.38;1.10;;;29.50;99.90;;;;;;5071646;28;20227;-59
2022/07/19 09:05:07;;;;;;;1.00;1.00;;;29.50;99.90;;;;;;5071462;28;20226;-61
2022/07/19 09:07:34;;;;;;;1.02;1.02;;;29.70;99.90;;;;;;5069407;28;20230;-59
2022/07/19 09:10:15;;;;;;;0.95;0.95;;;30.00;99.90;;;;;;5070881;28;20312;-59
2022/07/19 09:13:01;;;;;;;2.08;1.13;;;30.00;99.90;;;;;;5070517;28;20215;-59
2022/07/19 09:15:39;;;;;;;1.30;1.15;;;30.00;99.90;;;;;;5071280;28;20297;-60
2022/07/19 09:18:10;;;;;;;1.15;1.15;;;30.10;99.90;;;;;;5070717;28;20271;-59
2022/07/19 09:20:39;;;;;;;1.10;1.10;;;30.30;99.90;;;;;;5063350;28;20200;-61
2022/07/19 09:23:07;;;;;;;1.25;1.13;;;30.40;99.90;;;;;;5070820;28;20207;-61
2022/07/19 09:25:36;;;;;;;1.67;1.17;;;30.50;99.90;;;;;;5068761;28;20624;-61
2022/07/19 09:28:04;;;;;;;2.25;1.48;;;30.70;99.90;;;;;;5068554;28;20223;-61
2022/07/19 09:30:37;;;;;;;2.05;1.02;;;30.90;99.90;;;;;;5060978;28;20373;-61
2022/07/19 09:33:23;;;;;;;1.05;1.05;;;31.00;99.90;;;;;;5060512;28;20685;-61
2022/07/19 09:35:53;;;;;;;1.20;1.20;;;31.30;98.80;;;;;;5059349;28;21493;-62
2022/07/19 09:38:25;;;;;;;1.95;1.30;;;31.40;97.80;;;;;;5060359;28;20232;-62
2022/07/19 09:40:54;;;;;;;2.45;1.42;;;31.40;97.00;;;;;;5056980;28;20293;-61
2022/07/19 09:43:22;;;;;;;1.10;1.10;;;31.50;96.40;;;;;;5061473;28;20203;-61
2022/07/19 09:45:49;;;;;;;1.10;1.10;;;31.60;96.10;;;;;;5060313;28;20260;-61
2022/07/19 09:48:16;;;;;;;1.38;0.95;;;31.70;96.70;;;;;;5060946;28;20319;-60
2022/07/19 09:50:46;;;;;;;1.45;1.10;;;31.80;97.10;;;;;;5056648;28;20826;-61
2022/07/19 09:53:15;;;;;;;1.20;1.10;;;31.90;97.10;;;;;;5055229;28;20724;-61
2022/07/19 09:55:43;;;;;;;3.50;1.25;;;32.10;96.80;;;;;;5057940;28;20214;-62
2022/07/19 09:58:11;;;;;;;1.00;1.00;;;32.20;96.70;;;;;;5059622;28;20229;-61
2022/07/19 10:00:39;;;;;;;1.00;1.00;;;32.20;96.00;;;;;;5062913;28;20286;-61
2022/07/19 10:03:08;;;;;;;2.50;1.40;;;32.40;96.60;;;;;;5063919;28;20203;-61
2022/07/19 10:05:35;;;;;;;2.15;1.27;;;32.60;96.70;;;;;;5061723;28;20279;-59
2022/07/19 10:08:03;;;;;;;2.03;1.20;;;32.60;96.70;;;;;;5058366;28;20242;-60
2022/07/19 10:10:31;;;;;;;1.33;1.25;;;32.70;96.40;;;;;;5060470;28;20576;-61
2022/07/19 10:12:59;;;;;;;1.27;1.17;;;32.80;95.90;;;;;;5066338;28;20225;-61
2022/07/19 10:15:27;;;;;;;1.20;1.10;;;32.80;96.30;;;;;;5070984;28;20653;-61
2022/07/19 10:18:10;;;;;;;1.00;1.00;;;33.00;96.10;;;;;;5062443;28;20223;-62
2022/07/19 10:20:38;;;;;;;2.25;1.42;;;33.10;95.90;;;;;;5067349;28;20203;-61
2022/07/19 10:23:06;;;;;;;2.35;1.35;;;33.30;95.70;;;;;;5068716;28;20279;-60
2022/07/19 10:25:40;;;;;;;1.40;1.30;;;33.30;95.80;;;;;;5069673;28;20646;-61
2022/07/19 10:28:31;;;;;;;2.22;1.15;;;33.40;95.50;;;;;;5066958;28;20258;-59
2022/07/19 10:31:00;;;;;;;1.63;1.20;;;33.30;94.60;;;;;;5067555;28;20202;-58
2022/07/19 10:33:33;;;;;;;1.13;1.10;;;33.30;94.80;;;;;;5068504;28;20219;-59
2022/07/19 10:36:34;;;;;;;2.75;1.25;;;33.30;95.00;;;;;;5072114;28;20199;-58
2022/07/19 10:39:31;;;;;;;1.40;1.30;;;33.30;94.10;;;;;;5069238;28;20226;-60
2022/07/19 10:42:17;;;;;;;1.20;1.10;;;33.50;94.60;;;;;;5066213;28;20230;-58
2022/07/19 10:45:13;;;;;;;1.23;1.13;;;33.70;94.80;;;;;;5067058;28;20200;-61
2022/07/19 10:48:07;;;;;;;1.10;1.10;;;33.70;93.90;;;;;;5066006;28;20227;-58
2022/07/19 10:51:00;;;;;;;1.30;1.20;;;33.80;94.30;;;;;;5063078;28;20199;-61
2022/07/19 10:53:58;;;;;;;1.33;1.20;;;33.80;93.20;;;;;;5063956;28;20227;-61
2022/07/19 10:56:49;;;;;;;1.30;1.20;;;34.00;93.20;;;;;;5070804;28;20207;-58
2022/07/19 10:59:35;;;;;;;1.10;1.10;;;34.00;93.10;;;;;;5061717;28;20215;-61
2022/07/19 11:02:03;;;;;;;1.15;1.08;;;34.20;92.80;;;;;;5061739;28;20204;-60
2022/07/19 11:04:32;;;;;;;1.10;1.10;;;34.30;92.90;;;;;;5057727;28;20218;-59
2022/07/19 11:07:20;;;;;;;1.45;1.20;;;34.50;92.60;;;;;;5060101;28;20298;-59
2022/07/19 11:09:56;;;;;;;1.13;1.10;;;34.70;92.70;;;;;;5058118;28;20203;-60
2022/07/19 11:12:25;;;;;;;1.35;1.20;;;34.80;92.40;;;;;;5064623;28;20218;-59
2022/07/19 11:14:56;;;;;;;1.55;1.25;;;34.80;92.90;;;;;;5076743;28;20231;-60
2022/07/19 11:17:23;;;;;;;1.30;1.20;;;34.80;91.70;;;;;;5069714;28;20824;-60
2022/07/19 11:20:01;;;;;;;1.20;1.20;;;34.80;91.70;;;;;;5073643;28;20209;-59
2022/07/19 11:22:33;;;;;;;1.33;1.23;;;34.70;91.70;;;;;;5068870;28;20239;-59
2022/07/19 11:25:00;;;;;;;2.03;1.15;;;34.80;91.70;;;;;;5072110;28;20282;-59
2022/07/19 11:27:28;;;;;;;1.25;1.15;;;34.80;92.10;;;;;;5074184;28;20218;-60
2022/07/19 11:32:30;;;;;;;1.45;1.10;;;35.00;91.40;;;;;;5056884;28;20216;-67
2022/07/19 11:35:00;;;;;;;1.02;1.00;;;35.20;91.00;;;;;;5057291;28;20311;-69
2022/07/19 11:37:29;;;;;;;2.10;1.23;;;35.40;90.40;;;;;;5056434;28;20210;-67
2022/07/19 11:39:58;;;;;;;1.55;1.45;;;35.40;88.10;;;;;;5053637;28;20227;-68
2022/07/19 11:42:33;;;;;;;1.17;1.17;;;35.40;88.10;;;;;;5054959;28;20208;-67
2022/07/19 11:45:00;;;;;;;1.63;1.20;;;35.50;87.70;;;;;;5051911;28;20302;-67
2022/07/19 11:47:32;;;;;;;1.40;1.20;;;35.80;88.70;;;;;;5052935;28;20251;-67
2022/07/19 11:50:05;;;;;;;1.17;1.10;;;36.00;88.50;;;;;;5053328;28;20203;-68
2022/07/19 11:52:42;;;;;;;2.08;1.42;;;36.20;87.70;;;;;;5051559;28;20227;-68
2022/07/19 11:55:10;;;;;;;1.23;1.13;;;36.50;87.70;;;;;;5044822;28;20249;-65
2022/07/19 11:57:37;;;;;;;1.67;1.15;;;36.30;85.50;;;;;;5052877;28;20210;-68
2022/07/19 12:00:05;;;;;;;1.35;1.10;;;36.10;84.60;;;;;;5049809;28;20200;-69
2022/07/19 12:02:51;;;;;;;1.92;1.17;;;36.20;86.10;;;;;;5046143;28;20211;-67
2022/07/19 12:05:18;;;;;;;1.38;1.27;;;36.40;84.80;;;;;;5049567;28;20207;-67
2022/07/19 12:07:47;;;;;;;1.10;1.10;;;36.50;84.30;;;;;;5055369;28;20579;-68
2022/07/19 12:10:33;;;;;;;1.23;1.13;;;36.70;83.90;;;;;;5050473;28;20224;-68
2022/07/19 12:13:00;;;;;;;1.17;1.17;;;36.80;82.40;;;;;;5052787;28;20214;-67
2022/07/19 12:15:27;;;;;;;2.97;1.20;;;36.80;82.00;;;;;;5045166;28;20571;-66
2022/07/19 12:17:58;;;;;;;1.40;1.30;;;36.90;81.80;;;;;;5048156;28;20892;-67
2022/07/19 12:20:25;;;;;;;1.42;1.25;;;36.90;81.40;;;;;;5052100;28;20659;-65
2022/07/19 12:22:52;;;;;;;1.75;1.15;;;36.80;81.30;;;;;;5044039;28;20283;-66
2022/07/19 12:25:37;;;;;;;1.30;1.20;;;36.80;80.70;;;;;;5051122;28;20725;-67
2022/07/19 12:28:05;;;;;;;1.15;1.02;;;37.00;80.50;;;;;;5051291;28;20232;-67
2022/07/19 12:30:32;;;;;;;1.55;1.27;;;37.10;79.10;;;;;;5046731;28;20244;-68
2022/07/19 12:33:11;;;;;;;1.17;1.13;;;37.10;78.90;;;;;;5043985;28;20230;-67
2022/07/19 12:35:45;;;;;;;1.30;1.30;;;37.00;79.00;;;;;;5048537;28;20208;-66
2022/07/19 12:38:13;;;;;;;1.25;1.15;;;37.00;78.80;;;;;;5048150;28;20210;-69
2022/07/19 12:40:41;;;;;;;1.20;1.10;;;37.10;79.50;;;;;;5038986;28;20216;-65
2022/07/19 12:43:12;;;;;;;1.27;1.17;;;37.10;78.80;;;;;;5045367;28;20294;-67
2022/07/19 12:45:43;;;;;;;2.55;1.42;;;37.10;78.20;;;;;;5048738;28;20200;-67
2022/07/19 12:48:12;;;;;;;1.67;1.30;;;37.20;76.90;;;;;;5044794;28;20254;-67
2022/07/19 12:50:40;;;;;;;2.25;1.20;;;37.10;76.60;;;;;;5039142;28;20227;-65
2022/07/19 12:53:10;;;;;;;1.30;1.20;;;37.10;77.20;;;;;;5042522;28;20689;-67
2022/07/19 12:55:38;;;;;;;1.10;1.02;;;37.30;76.80;;;;;;5046350;28;20200;-64
2022/07/19 12:58:06;;;;;;;1.20;1.20;;;37.30;76.10;;;;;;5041752;28;20196;-65
2022/07/19 13:00:34;;;;;;;1.15;1.10;;;37.40;76.00;;;;;;5047127;28;20946;-68
2022/07/19 13:03:02;;;;;;;1.88;1.33;;;37.50;75.20;;;;;;5044621;28;20291;-67
2022/07/19 13:05:31;;;;;;;1.40;1.30;;;37.60;74.80;;;;;;5048631;28;20288;-66